Terminal Aerodrome Forecast
Issued by NWS Charleston, WV

Current Version | Previous Version | Text Only | Print | Product List | Glossary Off
Versions: 1 2 3 4 5 6 7 8 9 10 11 12 13 14 15 16 17 18 19 20 21 22 23 24 25 26 27 28

000
FTUS41 KRLX 301900 AAA
TAFHTS
TAF AMD
KHTS 301950Z 3020/3118 20008KT P6SM VCSH SCT040
      TEMPO 3020/3021 6SM -SHRA BKN035
     FM302100 29006KT P6SM VCTS BKN040CB
     FM310100 00000KT P6SM SCT050
     FM310800 00000KT 4SM BR FEW250
     FM310900 00000KT 2SM BR FEW250
     FM311100 00000KT 1SM BR FEW001
     FM311200 00000KT 1/2SM FG OVC001
     FM311300 00000KT 3SM BR SCT001
     FM311400 00000KT P6SM SCT040=

USA.gov is the U.S. government's official web portal to all federal, state and local government web resources and services.